createdAt,value
2023-10-04T00:00:32.993Z,5.68
2023-10-04T00:02:59.965Z,5.65
2023-10-04T00:05:27.272Z,6.38
2023-10-04T00:07:57.503Z,5.00
2023-10-04T00:10:25.221Z,5.45
2023-10-04T00:12:54.194Z,5.03
2023-10-04T00:15:22.896Z,4.82
2023-10-04T00:17:50.512Z,4.57
2023-10-04T00:20:18.181Z,5.00
2023-10-04T00:22:47.697Z,5.10
2023-10-04T00:25:22.688Z,4.97
2023-10-04T00:27:53.402Z,5.10
2023-10-04T00:30:20.739Z,5.07
2023-10-04T00:32:48.653Z,5.50
2023-10-04T00:35:19.161Z,4.88
2023-10-04T00:37:57.512Z,4.68
2023-10-04T00:40:32.329Z,4.60
2023-10-04T00:43:03.318Z,5.05
2023-10-04T00:45:31.265Z,5.18
2023-10-04T00:47:59.110Z,4.50
2023-10-04T00:50:31.316Z,4.50
2023-10-04T00:53:09.438Z,4.75
2023-10-04T00:55:45.080Z,4.93
2023-10-04T00:58:14.860Z,4.90
2023-10-04T01:00:45.092Z,4.25
2023-10-04T01:03:13.043Z,5.05
2023-10-04T01:05:46.449Z,4.85
2023-10-04T01:08:15.607Z,4.30
2023-10-04T01:10:44.957Z,4.57
2023-10-04T01:13:12.872Z,4.80
2023-10-04T01:15:40.984Z,4.72
2023-10-04T01:18:13.431Z,4.68
2023-10-04T01:20:40.634Z,4.95
2023-10-04T01:23:13.217Z,5.47
2023-10-04T01:25:45.434Z,5.25
2023-10-04T01:28:14.947Z,4.63
2023-10-04T01:30:42.606Z,5.28
2023-10-04T01:33:17.546Z,4.53
2023-10-04T01:35:46.968Z,5.35
2023-10-04T01:38:15.241Z,5.35
2023-10-04T01:40:49.347Z,5.10
2023-10-04T01:45:52.348Z,5.15
2023-10-04T01:48:19.320Z,5.53
2023-10-04T01:50:50.021Z,5.40
2023-10-04T01:53:17.716Z,4.55
2023-10-04T01:55:44.638Z,4.70
2023-10-04T01:58:11.923Z,4.70
2023-10-04T02:00:38.865Z,4.95
2023-10-04T02:03:09.261Z,4.88
2023-10-04T02:05:39.065Z,4.72
2023-10-04T02:08:10.179Z,4.43
2023-10-04T02:10:37.690Z,4.68
2023-10-04T02:13:08.297Z,4.70
2023-10-04T02:15:36.269Z,4.80
2023-10-04T02:18:03.760Z,4.50
2023-10-04T02:20:34.339Z,5.00
2023-10-04T02:23:01.313Z,4.85
2023-10-04T02:25:29.062Z,4.45
2023-10-04T02:28:02.067Z,4.97
2023-10-04T02:30:29.590Z,4.63
2023-10-04T02:32:57.053Z,5.53
2023-10-04T02:35:36.072Z,4.72
2023-10-04T02:38:17.400Z,5.57
2023-10-04T02:40:48.109Z,5.07
2023-10-04T02:43:16.901Z,4.40
2023-10-04T02:45:43.825Z,5.10
2023-10-04T02:48:12.210Z,4.70
2023-10-04T02:50:42.198Z,5.38
2023-10-04T02:53:14.958Z,4.90
2023-10-04T02:55:42.107Z,4.50
2023-10-04T02:58:09.101Z,4.35
2023-10-04T03:00:48.504Z,4.95
2023-10-04T03:03:16.147Z,5.55
2023-10-04T03:05:43.315Z,4.35
2023-10-04T03:08:10.322Z,4.28
2023-10-04T03:10:38.446Z,4.82
2023-10-04T03:13:23.631Z,4.35
2023-10-04T03:15:51.591Z,4.10
2023-10-04T03:18:22.106Z,5.20
2023-10-04T03:21:12.042Z,4.45
2023-10-04T03:23:41.552Z,4.95
2023-10-04T03:26:12.779Z,4.40
2023-10-04T03:28:42.809Z,4.15
2023-10-04T03:31:15.753Z,4.47
2023-10-04T03:33:46.717Z,6.38
2023-10-04T03:36:19.664Z,5.07
2023-10-04T03:38:46.634Z,6.13
2023-10-04T03:41:14.498Z,5.60
2023-10-04T03:43:42.243Z,4.32
2023-10-04T03:46:18.980Z,5.35
2023-10-04T03:48:50.129Z,4.63
2023-10-04T03:51:23.801Z,4.45
2023-10-04T03:53:54.953Z,4.47
2023-10-04T03:56:23.427Z,4.72
2023-10-04T03:58:50.365Z,4.72
2023-10-04T04:01:17.576Z,4.70
2023-10-04T04:03:45.837Z,4.68
2023-10-04T04:06:13.286Z,4.53
2023-10-04T04:08:40.325Z,4.20
2023-10-04T04:11:07.428Z,4.07
2023-10-04T04:13:38.108Z,4.57
2023-10-04T04:16:11.561Z,4.70
2023-10-04T04:18:39.154Z,4.13
2023-10-04T04:21:06.718Z,5.00
2023-10-04T04:23:33.805Z,4.97
2023-10-04T04:26:02.118Z,4.55
2023-10-04T04:28:31.039Z,4.70
2023-10-04T04:30:59.732Z,4.45
2023-10-04T04:33:29.884Z,4.07
2023-10-04T04:36:06.267Z,4.25
2023-10-04T04:38:38.619Z,4.95
2023-10-04T04:41:14.181Z,4.40
2023-10-04T04:43:40.947Z,4.15
2023-10-04T04:46:13.664Z,4.38
2023-10-04T04:48:41.650Z,4.43
2023-10-04T04:51:12.691Z,4.47
2023-10-04T04:53:44.117Z,4.72
2023-10-04T04:56:19.206Z,4.20
2023-10-04T04:58:50.638Z,4.40
2023-10-04T05:01:18.683Z,3.97
2023-10-04T05:03:52.578Z,4.97
2023-10-04T05:08:52.159Z,4.85
2023-10-04T05:11:19.374Z,4.75
2023-10-04T05:13:46.605Z,4.82
2023-10-04T05:16:13.675Z,5.18
2023-10-04T05:18:40.681Z,4.38
2023-10-04T05:21:07.983Z,4.30
2023-10-04T05:23:35.639Z,5.38
2023-10-04T05:26:02.537Z,4.80
2023-10-04T05:28:29.246Z,4.53
2023-10-04T05:30:56.437Z,5.07
2023-10-04T05:33:24.437Z,5.05
2023-10-04T05:35:54.565Z,4.68
2023-10-04T05:38:22.172Z,4.90
2023-10-04T05:40:49.008Z,5.70
2023-10-04T05:43:17.429Z,4.80
2023-10-04T05:45:45.844Z,5.78
2023-10-04T05:48:14.344Z,5.57
2023-10-04T05:50:41.427Z,5.60
2023-10-04T05:53:09.798Z,5.82
2023-10-04T05:55:38.961Z,6.00
2023-10-04T05:58:09.475Z,6.35
2023-10-04T06:00:42.367Z,6.95
2023-10-04T06:03:12.834Z,6.40
2023-10-04T06:05:41.662Z,6.13
2023-10-04T06:08:17.007Z,6.25
2023-10-04T06:10:44.507Z,6.00
2023-10-04T06:13:14.670Z,6.88
2023-10-04T06:15:43.110Z,6.30
2023-10-04T06:18:10.592Z,5.80
2023-10-04T06:20:37.785Z,6.55
2023-10-04T06:23:08.930Z,6.18
2023-10-04T06:25:40.522Z,5.80
2023-10-04T06:28:07.582Z,6.07
2023-10-04T06:30:35.755Z,5.43
2023-10-04T06:33:05.238Z,5.53
2023-10-04T06:35:33.340Z,4.88
2023-10-04T06:38:05.991Z,5.68
2023-10-04T06:40:32.970Z,6.38
2023-10-04T06:43:09.356Z,5.38
2023-10-04T06:45:37.792Z,5.03
2023-10-04T06:48:06.011Z,5.28
2023-10-04T06:50:37.231Z,5.00
2023-10-04T06:53:05.643Z,5.07
2023-10-04T06:55:34.232Z,5.75
2023-10-04T06:58:02.250Z,5.50
2023-10-04T07:00:31.826Z,6.03
2023-10-04T07:03:00.814Z,5.82
2023-10-04T07:05:34.071Z,4.82
2023-10-04T07:08:00.793Z,5.07
2023-10-04T07:10:30.228Z,5.28
2023-10-04T07:12:58.796Z,5.03
2023-10-04T07:15:29.067Z,5.18
2023-10-04T07:17:56.148Z,5.53
2023-10-04T07:20:25.918Z,5.30
2023-10-04T07:23:00.888Z,5.60
2023-10-04T07:25:29.529Z,5.30
2023-10-04T07:27:58.353Z,4.95
2023-10-04T07:30:28.296Z,4.45
2023-10-04T07:32:56.402Z,5.35
2023-10-04T07:35:29.468Z,5.10
2023-10-04T07:38:02.787Z,4.38
2023-10-04T07:40:32.429Z,4.95
2023-10-04T07:43:01.325Z,5.05
2023-10-04T07:45:31.070Z,4.50
2023-10-04T07:47:58.730Z,4.30
2023-10-04T07:50:27.335Z,5.07
2023-10-04T07:52:56.648Z,5.10
2023-10-04T07:55:25.647Z,4.95
2023-10-04T07:57:54.760Z,4.55
2023-10-04T08:00:22.166Z,4.35
2023-10-04T08:02:53.629Z,4.90
2023-10-04T08:05:21.958Z,4.78
2023-10-04T08:07:49.985Z,4.78
2023-10-04T08:10:24.462Z,5.25
2023-10-04T08:12:56.355Z,5.05
2023-10-04T08:15:27.239Z,4.70
2023-10-04T08:17:59.491Z,4.65
2023-10-04T08:20:31.019Z,4.68
2023-10-04T08:22:58.820Z,5.32
2023-10-04T08:25:28.886Z,4.82
2023-10-04T08:27:56.108Z,5.10
2023-10-04T08:30:23.330Z,4.82
2023-10-04T08:32:53.028Z,4.90
2023-10-04T08:35:23.592Z,5.03
2023-10-04T08:37:54.454Z,4.65
2023-10-04T08:40:24.131Z,4.38
2023-10-04T08:42:52.081Z,4.57
2023-10-04T08:45:23.455Z,4.43
2023-10-04T08:47:51.870Z,4.38
2023-10-04T08:50:40.793Z,4.78
2023-10-04T08:53:45.350Z,4.65
2023-10-04T08:56:18.188Z,4.57
2023-10-04T08:58:45.874Z,5.35
2023-10-04T09:01:15.174Z,4.35
2023-10-04T09:03:42.240Z,4.40
2023-10-04T09:06:12.077Z,4.88
2023-10-04T09:08:42.644Z,4.05
2023-10-04T09:11:13.187Z,4.60
2023-10-04T09:13:50.986Z,5.20
2023-10-04T09:16:38.670Z,4.55
2023-10-04T09:19:18.712Z,4.50
2023-10-04T09:21:46.977Z,4.45
2023-10-04T09:24:18.308Z,4.32
2023-10-04T09:26:53.993Z,4.50
2023-10-04T09:29:33.885Z,4.78
2023-10-04T09:32:01.408Z,4.90
2023-10-04T09:34:31.293Z,5.05
2023-10-04T09:36:58.986Z,4.38
2023-10-04T09:39:29.621Z,4.50
2023-10-04T09:41:57.981Z,4.85
2023-10-04T09:44:27.050Z,4.47
2023-10-04T09:47:03.782Z,4.60
2023-10-04T09:49:38.737Z,4.32
2023-10-04T09:52:08.683Z,4.97
2023-10-04T09:54:36.320Z,5.05
2023-10-04T09:57:07.287Z,5.20
2023-10-04T09:59:35.848Z,4.78
2023-10-04T10:02:03.989Z,5.68
2023-10-04T10:04:35.251Z,4.70
2023-10-04T10:07:17.272Z,5.20
2023-10-04T10:10:12.605Z,5.30
2023-10-04T10:12:45.042Z,5.30
2023-10-04T10:15:17.818Z,5.28
2023-10-04T10:17:45.067Z,4.97
2023-10-04T10:20:12.866Z,5.10
2023-10-04T10:23:01.404Z,5.75
2023-10-04T10:25:33.795Z,6.80
2023-10-04T10:28:03.182Z,6.82
2023-10-04T10:30:32.292Z,7.15
2023-10-04T10:33:01.404Z,7.95
2023-10-04T10:35:51.152Z,7.30
2023-10-04T10:38:43.031Z,6.75
2023-10-04T10:41:30.014Z,7.35
2023-10-04T10:44:16.194Z,6.88
2023-10-04T10:47:13.834Z,7.50
2023-10-04T10:49:51.703Z,7.13
2023-10-04T10:52:22.528Z,6.82
2023-10-04T10:54:49.741Z,5.75
2023-10-04T10:57:19.307Z,5.32
2023-10-04T10:59:47.528Z,6.80
2023-10-04T11:02:14.347Z,6.28
2023-10-04T11:04:41.139Z,5.00
2023-10-04T11:07:08.507Z,5.15
2023-10-04T11:09:44.672Z,4.55
2023-10-04T11:12:14.164Z,4.95
2023-10-04T11:14:41.267Z,4.82
2023-10-04T11:17:07.989Z,4.72
2023-10-04T11:19:35.791Z,5.40
2023-10-04T11:22:07.823Z,4.50
2023-10-04T11:24:37.060Z,4.22
2023-10-04T11:27:05.074Z,5.28
2023-10-04T11:29:34.171Z,4.82
2023-10-04T11:32:02.139Z,5.45
2023-10-04T11:34:29.761Z,4.53
2023-10-04T11:37:05.461Z,5.10
2023-10-04T11:39:38.227Z,4.53
2023-10-04T11:42:06.727Z,4.72
2023-10-04T11:44:35.687Z,4.18
2023-10-04T11:47:05.293Z,4.88
2023-10-04T11:49:34.402Z,5.28
2023-10-04T11:52:08.727Z,4.75
2023-10-04T11:54:39.668Z,4.10
2023-10-04T11:57:07.220Z,4.70
2023-10-04T11:59:34.744Z,4.50
2023-10-04T12:02:02.483Z,4.10
2023-10-04T12:04:30.915Z,3.95
2023-10-04T12:07:01.594Z,4.28
2023-10-04T12:09:32.878Z,4.22
2023-10-04T12:12:00.654Z,3.88
2023-10-04T12:14:28.203Z,3.78
2023-10-04T12:16:55.110Z,4.07
2023-10-04T12:19:21.797Z,4.18
2023-10-04T12:21:48.814Z,3.90
2023-10-04T12:24:16.199Z,3.88
2023-10-04T12:26:43.331Z,4.25
2023-10-04T12:29:12.324Z,4.47
2023-10-04T12:31:39.508Z,4.63
2023-10-04T12:34:06.717Z,4.25
2023-10-04T12:36:53.910Z,4.20
2023-10-04T12:39:22.605Z,4.30
2023-10-04T12:41:50.697Z,4.25
2023-10-04T12:44:21.129Z,3.95
2023-10-04T12:46:48.857Z,4.60
2023-10-04T12:49:16.405Z,5.80
2023-10-04T12:51:46.284Z,4.53
2023-10-04T12:54:13.315Z,4.07
2023-10-04T12:56:42.842Z,4.50
2023-10-04T12:59:11.440Z,4.57
2023-10-04T13:01:38.294Z,3.95
2023-10-04T13:04:05.626Z,3.60
2023-10-04T13:06:35.894Z,4.05
2023-10-04T13:09:02.913Z,4.10
2023-10-04T13:11:29.703Z,3.85
2023-10-04T13:13:57.915Z,4.40
2023-10-04T13:16:24.840Z,4.30
2023-10-04T13:18:52.318Z,3.85
2023-10-04T13:21:19.715Z,4.15
2023-10-04T13:23:46.957Z,4.00
2023-10-04T13:26:13.750Z,4.10
2023-10-04T13:28:40.667Z,3.88
2023-10-04T13:31:08.163Z,3.80
2023-10-04T13:33:35.614Z,4.15
2023-10-04T13:36:02.850Z,3.88
2023-10-04T13:38:29.941Z,3.75
2023-10-04T13:40:56.700Z,4.10
2023-10-04T13:43:23.550Z,3.83
2023-10-04T13:45:54.643Z,4.15
2023-10-04T13:48:23.842Z,4.28
2023-10-04T13:50:53.088Z,4.25
2023-10-04T13:53:22.252Z,3.97
2023-10-04T13:55:50.500Z,3.60
2023-10-04T13:58:24.405Z,4.22
2023-10-04T14:03:25.006Z,4.60
2023-10-04T14:05:55.100Z,4.70
2023-10-04T14:08:22.404Z,4.35
2023-10-04T14:10:50.471Z,4.10
2023-10-04T14:13:18.560Z,3.85
2023-10-04T14:15:45.326Z,4.85
2023-10-04T14:18:12.974Z,3.70
2023-10-04T14:20:39.979Z,4.03
2023-10-04T14:23:11.472Z,4.45
2023-10-04T14:25:39.571Z,4.10
2023-10-04T14:28:07.409Z,4.63
2023-10-04T14:30:34.121Z,4.60
2023-10-04T14:33:01.134Z,4.43
2023-10-04T14:35:28.890Z,4.20
2023-10-04T14:37:56.882Z,4.45
2023-10-04T14:40:26.737Z,4.50
2023-10-04T14:42:58.596Z,3.90
2023-10-04T14:45:26.834Z,4.13
2023-10-04T14:47:54.682Z,4.15
2023-10-04T14:50:21.922Z,5.05
2023-10-04T14:52:49.486Z,4.30
2023-10-04T14:55:20.857Z,4.47
2023-10-04T14:57:48.253Z,4.75
2023-10-04T15:00:18.923Z,4.50
2023-10-04T15:02:45.802Z,4.60
2023-10-04T15:05:13.627Z,4.75
2023-10-04T15:07:41.611Z,4.20
2023-10-04T15:10:18.298Z,4.70
2023-10-04T15:12:46.770Z,4.30
2023-10-04T15:15:14.149Z,4.13
2023-10-04T15:17:41.554Z,4.75
2023-10-04T15:20:09.836Z,5.07
2023-10-04T15:22:46.175Z,4.32
2023-10-04T15:25:13.593Z,5.63
2023-10-04T15:27:56.597Z,5.13
2023-10-04T15:30:24.245Z,4.28
2023-10-04T15:32:53.027Z,3.97
2023-10-04T15:35:26.947Z,4.78
2023-10-04T15:40:25.687Z,4.80
2023-10-04T15:42:54.617Z,4.90
2023-10-04T15:45:24.944Z,4.75
2023-10-04T15:47:56.291Z,4.57
2023-10-04T15:50:24.398Z,5.28
2023-10-04T15:52:51.189Z,5.35
2023-10-04T15:55:19.409Z,5.40
2023-10-04T15:57:47.398Z,5.50
2023-10-04T16:00:34.763Z,5.03
2023-10-04T16:03:02.852Z,5.05
2023-10-04T16:05:30.125Z,5.40
2023-10-04T16:07:57.286Z,5.18
2023-10-04T16:10:27.526Z,4.88
2023-10-04T16:12:56.350Z,5.15
2023-10-04T16:15:23.555Z,5.80
2023-10-04T16:17:51.286Z,5.63
2023-10-04T16:20:18.620Z,5.53
2023-10-04T16:22:48.765Z,5.65
2023-10-04T16:25:15.637Z,5.63
2023-10-04T16:27:46.905Z,6.28
2023-10-04T16:30:16.093Z,5.70
2023-10-04T16:32:43.909Z,5.75
2023-10-04T16:35:14.696Z,5.72
2023-10-04T16:37:45.579Z,6.40
2023-10-04T16:40:15.938Z,6.38
2023-10-04T16:42:43.499Z,6.65
2023-10-04T16:45:11.853Z,6.05
2023-10-04T16:47:38.726Z,6.13
2023-10-04T16:50:06.538Z,6.53
2023-10-04T16:52:33.859Z,6.28
2023-10-04T16:55:00.659Z,6.25
2023-10-04T16:57:27.491Z,5.85
2023-10-04T16:59:55.746Z,6.40
2023-10-04T17:02:22.975Z,5.72
2023-10-04T17:04:54.194Z,5.93
2023-10-04T17:07:22.319Z,6.07
2023-10-04T17:09:48.976Z,6.45
2023-10-04T17:12:15.606Z,7.13
2023-10-04T17:14:42.544Z,6.65
2023-10-04T17:17:10.036Z,6.10
2023-10-04T17:19:37.356Z,6.40
2023-10-04T17:22:04.327Z,6.72
2023-10-04T17:24:31.116Z,6.40
2023-10-04T17:26:57.769Z,5.85
2023-10-04T17:29:24.723Z,6.15
2023-10-04T17:31:51.554Z,5.82
2023-10-04T17:34:23.600Z,6.75
2023-10-04T17:36:50.412Z,5.65
2023-10-04T17:39:17.392Z,6.15
2023-10-04T17:41:44.306Z,5.78
2023-10-04T17:44:11.145Z,6.28
2023-10-04T17:46:38.137Z,6.28
2023-10-04T17:49:04.937Z,5.55
2023-10-04T17:51:32.014Z,5.38
2023-10-04T17:54:06.693Z,5.57
2023-10-04T17:56:34.556Z,6.55
2023-10-04T17:59:01.197Z,5.85
2023-10-04T18:01:28.009Z,6.32
2023-10-04T18:03:55.042Z,5.60
2023-10-04T18:06:24.548Z,5.68
2023-10-04T18:08:52.871Z,5.45
2023-10-04T18:11:24.186Z,5.72
2023-10-04T18:13:50.780Z,4.90
2023-10-04T18:16:19.129Z,5.75
2023-10-04T18:18:45.983Z,5.90
2023-10-04T18:21:13.134Z,5.55
2023-10-04T18:23:40.429Z,5.55
2023-10-04T18:26:09.278Z,5.50
2023-10-04T18:28:36.463Z,5.65
2023-10-04T18:31:03.585Z,5.70
2023-10-04T18:33:31.277Z,5.25
2023-10-04T18:35:58.233Z,6.22
2023-10-04T18:38:24.857Z,4.95
2023-10-04T18:40:51.968Z,5.82
2023-10-04T18:43:19.441Z,5.57
2023-10-04T18:45:46.203Z,6.13
2023-10-04T18:48:14.311Z,6.20
2023-10-04T18:50:41.717Z,5.43
2023-10-04T18:53:08.559Z,5.10
2023-10-04T18:55:42.490Z,6.28
2023-10-04T19:00:49.184Z,6.07
2023-10-04T19:03:18.934Z,5.93
2023-10-04T19:05:47.116Z,6.00
2023-10-04T19:08:13.999Z,5.65
2023-10-04T19:10:41.804Z,5.57
2023-10-04T19:13:11.718Z,4.90
2023-10-04T19:15:41.639Z,5.32
2023-10-04T19:18:09.320Z,5.78
2023-10-04T19:20:36.661Z,5.85
2023-10-04T19:23:04.830Z,5.55
2023-10-04T19:25:32.427Z,5.85
2023-10-04T19:28:00.274Z,6.38
2023-10-04T19:30:35.309Z,6.13
2023-10-04T19:33:04.890Z,5.80
2023-10-04T19:35:32.461Z,5.88
2023-10-04T19:38:04.265Z,6.32
2023-10-04T19:40:31.032Z,6.20
2023-10-04T19:42:57.812Z,6.70
2023-10-04T19:45:24.635Z,7.43
2023-10-04T19:47:53.263Z,7.53
2023-10-04T19:50:20.581Z,7.30
2023-10-04T19:52:52.639Z,7.20
2023-10-04T19:55:20.317Z,7.90
2023-10-04T19:57:47.063Z,6.45
2023-10-04T20:00:26.655Z,6.28
2023-10-04T20:02:54.648Z,6.72
2023-10-04T20:05:31.883Z,7.57
2023-10-04T20:08:03.632Z,7.15
2023-10-04T20:10:34.261Z,7.00
2023-10-04T20:13:02.174Z,7.15
2023-10-04T20:15:30.627Z,6.95
2023-10-04T20:17:57.448Z,6.78
2023-10-04T20:20:28.429Z,7.03
2023-10-04T20:22:55.925Z,6.47
2023-10-04T20:25:22.855Z,7.32
2023-10-04T20:27:49.616Z,6.70
2023-10-04T20:30:18.972Z,6.88
2023-10-04T20:32:47.229Z,6.82
2023-10-04T20:35:14.703Z,6.10
2023-10-04T20:37:42.107Z,7.35
2023-10-04T20:40:12.442Z,6.55
2023-10-04T20:42:41.847Z,6.47
2023-10-04T20:45:13.550Z,6.85
2023-10-04T20:47:40.991Z,6.88
2023-10-04T20:50:08.761Z,7.18
2023-10-04T20:52:36.615Z,6.93
2023-10-04T20:55:05.039Z,7.15
2023-10-04T20:57:32.171Z,6.72
2023-10-04T20:59:59.150Z,6.90
2023-10-04T21:02:25.900Z,6.80
2023-10-04T21:04:52.873Z,6.88
2023-10-04T21:07:20.198Z,6.50
2023-10-04T21:09:49.084Z,6.30
2023-10-04T21:12:16.360Z,6.63
2023-10-04T21:14:43.211Z,7.00
2023-10-04T21:17:09.891Z,6.65
2023-10-04T21:19:37.303Z,6.95
2023-10-04T21:22:04.748Z,6.53
2023-10-04T21:24:31.785Z,7.45
2023-10-04T21:26:58.751Z,6.50
2023-10-04T21:29:28.230Z,7.18
2023-10-04T21:31:55.735Z,6.95
2023-10-04T21:34:23.193Z,6.90
2023-10-04T21:36:50.220Z,6.30
2023-10-04T21:39:29.888Z,6.20
2023-10-04T21:41:57.599Z,6.90
2023-10-04T21:44:29.495Z,7.20
2023-10-04T21:47:05.443Z,6.13
2023-10-04T21:49:38.550Z,6.70
2023-10-04T21:52:10.779Z,7.75
2023-10-04T21:54:38.106Z,7.07
2023-10-04T21:57:06.343Z,6.13
2023-10-04T21:59:36.405Z,6.97
2023-10-04T22:02:04.198Z,6.20
2023-10-04T22:04:32.193Z,6.93
2023-10-04T22:07:14.404Z,6.70
2023-10-04T22:09:49.941Z,7.82
2023-10-04T22:12:17.788Z,7.20
2023-10-04T22:14:45.300Z,7.00
2023-10-04T22:17:13.841Z,7.25
2023-10-04T22:19:41.070Z,7.43
2023-10-04T22:22:11.479Z,6.93
2023-10-04T22:24:54.673Z,7.85
2023-10-04T22:27:27.269Z,7.63
2023-10-04T22:29:57.018Z,7.65
2023-10-04T22:32:24.675Z,6.68
2023-10-04T22:34:53.604Z,6.80
2023-10-04T22:37:21.062Z,7.18
2023-10-04T22:39:48.127Z,7.15
2023-10-04T22:42:15.546Z,8.48
2023-10-04T22:44:42.733Z,6.70
2023-10-04T22:47:11.242Z,7.32
2023-10-04T22:49:38.639Z,7.07
2023-10-04T22:52:05.435Z,6.82
2023-10-04T22:54:32.233Z,7.65
2023-10-04T22:57:01.254Z,6.68
2023-10-04T22:59:28.064Z,6.80
2023-10-04T23:01:56.283Z,6.88
2023-10-04T23:04:23.569Z,6.70
2023-10-04T23:06:50.714Z,7.97
2023-10-04T23:09:18.542Z,6.88
2023-10-04T23:11:47.088Z,7.63
2023-10-04T23:14:14.608Z,7.10
2023-10-04T23:16:44.582Z,7.40
2023-10-04T23:19:18.312Z,7.32
2023-10-04T23:21:50.813Z,7.47
2023-10-04T23:24:19.044Z,7.05
2023-10-04T23:26:45.894Z,6.30
2023-10-04T23:29:14.413Z,6.57
2023-10-04T23:31:44.250Z,6.65
2023-10-04T23:34:11.329Z,6.07
2023-10-04T23:36:41.486Z,6.22
2023-10-04T23:39:09.884Z,6.18
2023-10-04T23:41:37.725Z,5.95
2023-10-04T23:44:11.688Z,7.35
2023-10-04T23:46:38.712Z,7.10
2023-10-04T23:49:20.530Z,6.25
2023-10-04T23:51:53.484Z,7.28
2023-10-04T23:54:24.428Z,6.28
2023-10-04T23:56:54.199Z,6.60
2023-10-04T23:59:22.035Z,6.82
